Kotzebue, AK

2:43 AM AKDT on August 20, 2014 (GMT -0800)
Wien Memorial | Change Station
CLOSE
Current Station
Airport
Location: Kotzebue,
Elevation: 16 ft
Nearby Weather Stations

Elev 16 ft 66.88 °N, 162.60 °W | Updated 50 minutes ago

Overcast
Overcast
56 °F
Feels Like 56 °F
N
10
Wind Variable Wind from NNW

Today
High -- | Low -- °F
--% Chance of Precip.
Yesterday
High -- | Low -- °F
Precip. -- in
6:40 AM 11:04 PM
Waning Crescent, 22% visible
Pressure 30.05 in
Visibility 10.0 miles
Clouds Overcast 3000 ft
Dew Point 51 °F
Humidity 84%
Rainfall 0.00 in
Snow Depth Not available.
UV 0 out of 12
Pollen Not available.
Air Quality Not available.
Flu Activity Not available.
METAR PAOT 200953Z 33009KT 10SM OVC030 13/11 A3005 RMK RAB02E49 SLP175 P0000 T01330106 VIA AUTODIAL

More Conditions Fewer Conditions

Pressure 30.05 in
Visibility 10.0 miles
Clouds Overcast 3000 ft
Dew Point 51 °F
Humidity 84%
Rainfall 0.00 in
Snow Depth Not available.
UV 0 out of 12
Pollen Not available.
Air Quality Not available.
Flu Activity Not available.
METAR PAOT 200953Z 33009KT 10SM OVC030 13/11 A3005 RMK RAB02E49 SLP175 P0000 T01330106 VIA AUTODIAL

More Conditions Fewer Conditions

10-Day Weather Forecast

Almanac

Astronomy

Aug. 20, 2014 Rise Set
Actual Time 6:40 AM AKDT 11:04 PM AKDT
Civil Twilight 5:26 AM AKDT 12:16 AM AKDT
Nautical Twilight 3:26 AM AKDT 2:21 AM AKDT
Astronomical Twilight Sun does not rise Sun does not rise
Moon 1:29 AM AKDT 8:52 PM AKDT
Length of Visible Light 18h 49m
Length of Day
16h 24m
Tomorrow will be 7m 47s shorter.
Waning Crescent, 22% of the Moon is Illuminated
Today
Waning Crescent
Aug 25
New
Sep 2
First Quarter
Sep 8
Full
Sep 15
Last Quarter

Today's Extremes

State Highs State Lows

Community

WunderPhotos

Upload Photos

1,745,605 photos uploaded!

Nearby

Snow Depth

Station Depth Elevation
Rocky Point 4 in 500 ft
Coldfoot 0 in 1040 ft
Fort Yukon 2 in 430 ft
Munson Ridge 1 in 3100 ft
Monument Creek 0 in 1850 ft

Earthquake Activity

City Distance Mag. Time & Date
No recent earthquake activity has been reported nearby.
Minimum magnitude displayed is 2.5.

Coastal Water Temperatures

Place Temperature
No Stations Reporting

Nearby Weather Stations